sensor_id;sensor_type;location;lat;lon;timestamp;P1;durP1;ratioP1;P2;durP2;ratioP2
45402;SDS011;47427;51.976;5.326;2022-09-01T00:00:49;2.70;;;2.00;;
45402;SDS011;47427;51.976;5.326;2022-09-01T00:04:15;6.05;;;1.90;;
45402;SDS011;47427;51.976;5.326;2022-09-01T00:07:47;3.85;;;1.83;;
45402;SDS011;47427;51.976;5.326;2022-09-01T00:11:16;4.68;;;1.67;;
45402;SDS011;47427;51.976;5.326;2022-09-01T00:14:39;3.08;;;1.88;;
45402;SDS011;47427;51.976;5.326;2022-09-01T00:18:04;3.35;;;2.25;;
45402;SDS011;47427;51.976;5.326;2022-09-01T00:21:29;4.22;;;2.00;;
45402;SDS011;47427;51.976;5.326;2022-09-01T00:24:55;3.35;;;1.83;;
45402;SDS011;47427;51.976;5.326;2022-09-01T00:28:18;5.35;;;1.90;;
45402;SDS011;47427;51.976;5.326;2022-09-01T00:31:41;3.20;;;2.13;;
45402;SDS011;47427;51.976;5.326;2022-09-01T00:35:05;5.35;;;2.10;;
45402;SDS011;47427;51.976;5.326;2022-09-01T00:38:30;5.35;;;2.20;;
45402;SDS011;47427;51.976;5.326;2022-09-01T00:41:54;4.30;;;2.05;;
45402;SDS011;47427;51.976;5.326;2022-09-01T00:45:16;3.80;;;2.10;;
45402;SDS011;47427;51.976;5.326;2022-09-01T00:48:41;3.38;;;1.95;;
45402;SDS011;47427;51.976;5.326;2022-09-01T00:55:45;6.35;;;2.15;;
45402;SDS011;47427;51.976;5.326;2022-09-01T00:59:08;3.58;;;1.77;;
45402;SDS011;47427;51.976;5.326;2022-09-01T01:02:33;3.00;;;2.03;;
45402;SDS011;47427;51.976;5.326;2022-09-01T01:05:58;2.33;;;1.92;;
45402;SDS011;47427;51.976;5.326;2022-09-01T01:09:29;3.63;;;2.15;;
45402;SDS011;47427;51.976;5.326;2022-09-01T01:13:15;4.53;;;2.20;;
45402;SDS011;47427;51.976;5.326;2022-09-01T01:16:39;5.07;;;2.03;;
45402;SDS011;47427;51.976;5.326;2022-09-01T01:20:06;8.88;;;2.20;;
45402;SDS011;47427;51.976;5.326;2022-09-01T01:24:05;5.22;;;2.30;;
45402;SDS011;47427;51.976;5.326;2022-09-01T01:27:44;4.18;;;2.40;;
45402;SDS011;47427;51.976;5.326;2022-09-01T01:31:09;8.23;;;2.80;;
45402;SDS011;47427;51.976;5.326;2022-09-01T01:34:39;4.00;;;2.25;;
45402;SDS011;47427;51.976;5.326;2022-09-01T01:38:05;5.72;;;2.45;;
45402;SDS011;47427;51.976;5.326;2022-09-01T01:41:30;3.15;;;2.55;;
45402;SDS011;47427;51.976;5.326;2022-09-01T01:44:54;6.97;;;2.40;;
45402;SDS011;47427;51.976;5.326;2022-09-01T01:48:18;4.10;;;2.42;;
45402;SDS011;47427;51.976;5.326;2022-09-01T01:51:46;3.95;;;2.38;;
45402;SDS011;47427;51.976;5.326;2022-09-01T01:55:11;4.50;;;2.58;;
45402;SDS011;47427;51.976;5.326;2022-09-01T01:58:38;4.13;;;2.33;;
45402;SDS011;47427;51.976;5.326;2022-09-01T02:02:05;3.83;;;2.92;;
45402;SDS011;47427;51.976;5.326;2022-09-01T02:05:31;6.03;;;2.10;;
45402;SDS011;47427;51.976;5.326;2022-09-01T02:08:56;8.65;;;2.67;;
45402;SDS011;47427;51.976;5.326;2022-09-01T02:12:20;5.93;;;2.33;;
45402;SDS011;47427;51.976;5.326;2022-09-01T02:15:46;5.38;;;2.75;;
45402;SDS011;47427;51.976;5.326;2022-09-01T02:19:14;5.88;;;2.70;;
45402;SDS011;47427;51.976;5.326;2022-09-01T02:22:42;3.38;;;2.33;;
45402;SDS011;47427;51.976;5.326;2022-09-01T02:26:06;3.38;;;2.55;;
45402;SDS011;47427;51.976;5.326;2022-09-01T02:29:32;5.75;;;2.38;;
45402;SDS011;47427;51.976;5.326;2022-09-01T02:32:55;3.53;;;2.00;;
45402;SDS011;47427;51.976;5.326;2022-09-01T02:36:20;3.58;;;2.72;;
45402;SDS011;47427;51.976;5.326;2022-09-01T02:39:43;6.07;;;2.15;;
45402;SDS011;47427;51.976;5.326;2022-09-01T02:43:25;7.93;;;3.10;;
45402;SDS011;47427;51.976;5.326;2022-09-01T02:46:50;4.15;;;2.58;;
45402;SDS011;47427;51.976;5.326;2022-09-01T02:50:16;4.55;;;2.97;;
45402;SDS011;47427;51.976;5.326;2022-09-01T02:53:40;5.38;;;3.00;;
45402;SDS011;47427;51.976;5.326;2022-09-01T02:57:24;3.33;;;2.20;;
45402;SDS011;47427;51.976;5.326;2022-09-01T03:00:50;5.35;;;2.53;;
45402;SDS011;47427;51.976;5.326;2022-09-01T03:04:16;3.63;;;2.75;;
45402;SDS011;47427;51.976;5.326;2022-09-01T03:07:39;6.07;;;2.75;;
45402;SDS011;47427;51.976;5.326;2022-09-01T03:11:03;7.32;;;2.55;;
45402;SDS011;47427;51.976;5.326;2022-09-01T03:14:32;6.45;;;2.65;;
45402;SDS011;47427;51.976;5.326;2022-09-01T03:18:13;7.78;;;3.13;;
45402;SDS011;47427;51.976;5.326;2022-09-01T03:21:39;8.00;;;3.22;;
45402;SDS011;47427;51.976;5.326;2022-09-01T03:25:23;7.65;;;2.80;;
45402;SDS011;47427;51.976;5.326;2022-09-01T03:28:48;4.25;;;3.00;;
45402;SDS011;47427;51.976;5.326;2022-09-01T03:32:13;5.45;;;2.67;;
45402;SDS011;47427;51.976;5.326;2022-09-01T03:35:36;4.50;;;2.92;;
45402;SDS011;47427;51.976;5.326;2022-09-01T03:38:59;3.92;;;2.67;;
45402;SDS011;47427;51.976;5.326;2022-09-01T03:42:25;6.70;;;3.75;;
45402;SDS011;47427;51.976;5.326;2022-09-01T03:49:16;5.35;;;2.60;;
45402;SDS011;47427;51.976;5.326;2022-09-01T03:52:49;4.07;;;2.60;;
45402;SDS011;47427;51.976;5.326;2022-09-01T03:56:15;6.55;;;3.05;;
45402;SDS011;47427;51.976;5.326;2022-09-01T03:59:56;8.52;;;3.17;;
45402;SDS011;47427;51.976;5.326;2022-09-01T04:03:20;8.45;;;2.80;;
45402;SDS011;47427;51.976;5.326;2022-09-01T04:10:29;5.93;;;2.88;;
45402;SDS011;47427;51.976;5.326;2022-09-01T04:13:59;6.75;;;2.97;;
45402;SDS011;47427;51.976;5.326;2022-09-01T04:17:25;9.55;;;3.03;;
45402;SDS011;47427;51.976;5.326;2022-09-01T04:21:06;6.93;;;2.92;;
45402;SDS011;47427;51.976;5.326;2022-09-01T04:24:31;6.40;;;3.03;;
45402;SDS011;47427;51.976;5.326;2022-09-01T04:27:55;8.35;;;2.85;;
45402;SDS011;47427;51.976;5.326;2022-09-01T04:31:20;5.28;;;2.53;;
45402;SDS011;47427;51.976;5.326;2022-09-01T04:34:44;7.23;;;3.30;;
45402;SDS011;47427;51.976;5.326;2022-09-01T04:38:09;7.70;;;2.60;;
45402;SDS011;47427;51.976;5.326;2022-09-01T04:41:32;6.72;;;3.28;;
45402;SDS011;47427;51.976;5.326;2022-09-01T04:44:59;5.05;;;3.08;;
45402;SDS011;47427;51.976;5.326;2022-09-01T04:48:24;7.03;;;2.78;;
45402;SDS011;47427;51.976;5.326;2022-09-01T04:51:49;3.20;;;2.85;;
45402;SDS011;47427;51.976;5.326;2022-09-01T04:55:13;11.15;;;3.10;;
45402;SDS011;47427;51.976;5.326;2022-09-01T04:58:39;8.35;;;3.03;;
45402;SDS011;47427;51.976;5.326;2022-09-01T05:02:02;5.45;;;3.28;;
45402;SDS011;47427;51.976;5.326;2022-09-01T05:05:36;7.10;;;3.35;;
45402;SDS011;47427;51.976;5.326;2022-09-01T05:09:05;8.93;;;2.80;;
45402;SDS011;47427;51.976;5.326;2022-09-01T05:12:37;8.63;;;2.92;;
45402;SDS011;47427;51.976;5.326;2022-09-01T05:16:01;7.43;;;3.55;;
45402;SDS011;47427;51.976;5.326;2022-09-01T05:19:33;8.18;;;2.83;;
45402;SDS011;47427;51.976;5.326;2022-09-01T05:22:58;3.10;;;2.50;;
45402;SDS011;47427;51.976;5.326;2022-09-01T05:26:24;6.60;;;3.35;;
45402;SDS011;47427;51.976;5.326;2022-09-01T05:29:49;8.98;;;3.67;;
45402;SDS011;47427;51.976;5.326;2022-09-01T05:33:12;7.53;;;3.30;;
45402;SDS011;47427;51.976;5.326;2022-09-01T05:36:41;3.95;;;2.38;;
45402;SDS011;47427;51.976;5.326;2022-09-01T05:40:07;4.15;;;3.15;;
45402;SDS011;47427;51.976;5.326;2022-09-01T05:43:37;5.88;;;2.85;;
45402;SDS011;47427;51.976;5.326;2022-09-01T05:47:00;6.70;;;2.95;;
45402;SDS011;47427;51.976;5.326;2022-09-01T05:50:24;3.55;;;2.55;;
45402;SDS011;47427;51.976;5.326;2022-09-01T05:53:49;5.05;;;3.17;;
45402;SDS011;47427;51.976;5.326;2022-09-01T05:57:12;4.72;;;2.92;;
45402;SDS011;47427;51.976;5.326;2022-09-01T06:00:35;5.00;;;2.60;;
45402;SDS011;47427;51.976;5.326;2022-09-01T06:04:00;9.05;;;2.90;;
45402;SDS011;47427;51.976;5.326;2022-09-01T06:07:28;4.00;;;2.42;;
45402;SDS011;47427;51.976;5.326;2022-09-01T06:10:53;4.03;;;2.72;;
45402;SDS011;47427;51.976;5.326;2022-09-01T06:14:16;7.18;;;2.70;;
45402;SDS011;47427;51.976;5.326;2022-09-01T06:17:41;5.10;;;2.70;;
45402;SDS011;47427;51.976;5.326;2022-09-01T06:21:05;8.70;;;2.38;;
45402;SDS011;47427;51.976;5.326;2022-09-01T06:24:35;6.80;;;3.15;;
45402;SDS011;47427;51.976;5.326;2022-09-01T06:31:26;6.97;;;2.70;;
45402;SDS011;47427;51.976;5.326;2022-09-01T06:35:00;6.82;;;2.50;;
45402;SDS011;47427;51.976;5.326;2022-09-01T06:38:23;6.95;;;2.03;;
45402;SDS011;47427;51.976;5.326;2022-09-01T06:41:49;2.30;;;1.70;;
45402;SDS011;47427;51.976;5.326;2022-09-01T06:45:18;5.00;;;1.92;;
45402;SDS011;47427;51.976;5.326;2022-09-01T06:48:45;6.30;;;1.85;;
45402;SDS011;47427;51.976;5.326;2022-09-01T06:52:09;6.53;;;2.20;;
45402;SDS011;47427;51.976;5.326;2022-09-01T06:55:38;3.40;;;1.77;;
45402;SDS011;47427;51.976;5.326;2022-09-01T06:59:21;4.28;;;2.15;;
45402;SDS011;47427;51.976;5.326;2022-09-01T07:02:51;5.82;;;2.00;;
45402;SDS011;47427;51.976;5.326;2022-09-01T07:06:31;3.75;;;2.22;;
45402;SDS011;47427;51.976;5.326;2022-09-01T07:10:11;3.08;;;2.03;;
45402;SDS011;47427;51.976;5.326;2022-09-01T07:13:55;4.35;;;2.17;;
45402;SDS011;47427;51.976;5.326;2022-09-01T07:17:24;3.58;;;1.60;;
45402;SDS011;47427;51.976;5.326;2022-09-01T07:20:47;4.57;;;2.13;;
45402;SDS011;47427;51.976;5.326;2022-09-01T07:24:10;3.15;;;1.88;;
45402;SDS011;47427;51.976;5.326;2022-09-01T07:27:54;2.83;;;1.80;;
45402;SDS011;47427;51.976;5.326;2022-09-01T07:31:27;3.80;;;1.85;;
45402;SDS011;47427;51.976;5.326;2022-09-01T07:34:55;6.03;;;2.00;;
45402;SDS011;47427;51.976;5.326;2022-09-01T07:38:19;5.53;;;2.00;;
45402;SDS011;47427;51.976;5.326;2022-09-01T07:41:49;5.03;;;2.20;;
45402;SDS011;47427;51.976;5.326;2022-09-01T07:45:40;3.45;;;1.63;;
45402;SDS011;47427;51.976;5.326;2022-09-01T07:49:07;2.72;;;1.73;;
45402;SDS011;47427;51.976;5.326;2022-09-01T07:52:32;3.87;;;1.67;;
45402;SDS011;47427;51.976;5.326;2022-09-01T07:56:06;4.00;;;1.77;;
45402;SDS011;47427;51.976;5.326;2022-09-01T07:59:36;7.75;;;1.67;;
45402;SDS011;47427;51.976;5.326;2022-09-01T08:03:12;2.63;;;1.77;;
45402;SDS011;47427;51.976;5.326;2022-09-01T08:06:34;5.85;;;1.98;;
45402;SDS011;47427;51.976;5.326;2022-09-01T08:09:56;3.30;;;2.17;;
45402;SDS011;47427;51.976;5.326;2022-09-01T08:13:19;8.00;;;2.20;;
45402;SDS011;47427;51.976;5.326;2022-09-01T08:16:41;3.33;;;1.60;;
45402;SDS011;47427;51.976;5.326;2022-09-01T08:20:05;5.88;;;1.70;;
45402;SDS011;47427;51.976;5.326;2022-09-01T08:23:43;5.95;;;1.92;;
45402;SDS011;47427;51.976;5.326;2022-09-01T08:27:08;3.13;;;1.48;;
45402;SDS011;47427;51.976;5.326;2022-09-01T08:30:49;18.48;;;2.42;;
45402;SDS011;47427;51.976;5.326;2022-09-01T08:34:13;4.53;;;1.48;;
45402;SDS011;47427;51.976;5.326;2022-09-01T08:37:38;5.43;;;1.60;;
45402;SDS011;47427;51.976;5.326;2022-09-01T08:41:01;6.38;;;2.03;;
45402;SDS011;47427;51.976;5.326;2022-09-01T08:44:36;5.68;;;1.58;;
45402;SDS011;47427;51.976;5.326;2022-09-01T08:48:15;2.55;;;1.75;;
45402;SDS011;47427;51.976;5.326;2022-09-01T08:51:44;4.75;;;1.90;;
45402;SDS011;47427;51.976;5.326;2022-09-01T08:55:31;5.80;;;1.90;;
45402;SDS011;47427;51.976;5.326;2022-09-01T08:59:23;4.07;;;1.50;;
45402;SDS011;47427;51.976;5.326;2022-09-01T09:03:08;9.95;;;2.10;;
45402;SDS011;47427;51.976;5.326;2022-09-01T09:06:55;3.67;;;1.60;;
45402;SDS011;47427;51.976;5.326;2022-09-01T09:18:34;5.32;;;2.05;;
45402;SDS011;47427;51.976;5.326;2022-09-01T09:22:17;6.47;;;1.23;;
45402;SDS011;47427;51.976;5.326;2022-09-01T09:29:01;2.42;;;1.50;;
45402;SDS011;47427;51.976;5.326;2022-09-01T09:32:42;3.25;;;1.60;;
45402;SDS011;47427;51.976;5.326;2022-09-01T09:36:14;4.82;;;1.63;;
45402;SDS011;47427;51.976;5.326;2022-09-01T09:39:42;4.82;;;1.77;;
45402;SDS011;47427;51.976;5.326;2022-09-01T09:43:05;2.28;;;1.40;;
45402;SDS011;47427;51.976;5.326;2022-09-01T09:50:01;6.15;;;1.70;;
45402;SDS011;47427;51.976;5.326;2022-09-01T09:53:52;4.45;;;1.48;;
45402;SDS011;47427;51.976;5.326;2022-09-01T09:57:50;2.35;;;1.45;;
45402;SDS011;47427;51.976;5.326;2022-09-01T10:04:45;6.65;;;1.70;;
45402;SDS011;47427;51.976;5.326;2022-09-01T10:08:09;8.68;;;1.45;;
45402;SDS011;47427;51.976;5.326;2022-09-01T10:11:55;2.92;;;1.35;;
45402;SDS011;47427;51.976;5.326;2022-09-01T10:15:24;8.57;;;1.77;;
45402;SDS011;47427;51.976;5.326;2022-09-01T10:18:51;2.85;;;1.27;;
45402;SDS011;47427;51.976;5.326;2022-09-01T10:22:19;2.20;;;1.20;;
45402;SDS011;47427;51.976;5.326;2022-09-01T10:25:44;2.40;;;1.27;;
45402;SDS011;47427;51.976;5.326;2022-09-01T10:33:00;2.38;;;1.20;;
45402;SDS011;47427;51.976;5.326;2022-09-01T10:36:24;2.63;;;1.50;;
45402;SDS011;47427;51.976;5.326;2022-09-01T10:43:37;4.93;;;1.33;;
45402;SDS011;47427;51.976;5.326;2022-09-01T10:47:09;5.72;;;1.70;;
45402;SDS011;47427;51.976;5.326;2022-09-01T10:50:45;2.47;;;1.30;;
45402;SDS011;47427;51.976;5.326;2022-09-01T10:54:08;2.38;;;1.40;;
45402;SDS011;47427;51.976;5.326;2022-09-01T11:20:05;5.60;;;1.00;;
45402;SDS011;47427;51.976;5.326;2022-09-01T11:23:44;2.38;;;1.40;;
45402;SDS011;47427;51.976;5.326;2022-09-01T11:27:07;3.58;;;1.48;;
45402;SDS011;47427;51.976;5.326;2022-09-01T11:30:34;2.22;;;1.10;;
45402;SDS011;47427;51.976;5.326;2022-09-01T11:34:16;4.80;;;1.30;;
45402;SDS011;47427;51.976;5.326;2022-09-01T11:37:47;2.17;;;1.20;;
45402;SDS011;47427;51.976;5.326;2022-09-01T11:41:18;3.83;;;1.30;;
45402;SDS011;47427;51.976;5.326;2022-09-01T11:45:22;3.40;;;1.10;;
45402;SDS011;47427;51.976;5.326;2022-09-01T11:48:50;1.52;;;0.93;;
45402;SDS011;47427;51.976;5.326;2022-09-01T11:52:14;2.33;;;1.23;;
45402;SDS011;47427;51.976;5.326;2022-09-01T11:55:38;0.88;;;0.88;;
45402;SDS011;47427;51.976;5.326;2022-09-01T11:59:10;1.85;;;1.13;;
45402;SDS011;47427;51.976;5.326;2022-09-01T12:02:33;8.32;;;1.40;;
45402;SDS011;47427;51.976;5.326;2022-09-01T12:06:02;2.17;;;1.30;;
45402;SDS011;47427;51.976;5.326;2022-09-01T12:09:48;2.90;;;1.15;;
45402;SDS011;47427;51.976;5.326;2022-09-01T12:13:19;0.93;;;0.90;;
45402;SDS011;47427;51.976;5.326;2022-09-01T12:16:43;4.68;;;1.15;;
45402;SDS011;47427;51.976;5.326;2022-09-01T12:20:19;2.67;;;1.20;;
45402;SDS011;47427;51.976;5.326;2022-09-01T12:24:12;3.53;;;1.10;;
45402;SDS011;47427;51.976;5.326;2022-09-01T12:27:34;1.23;;;1.00;;
45402;SDS011;47427;51.976;5.326;2022-09-01T12:31:00;5.55;;;1.38;;
45402;SDS011;47427;51.976;5.326;2022-09-01T12:38:15;3.55;;;1.20;;
45402;SDS011;47427;51.976;5.326;2022-09-01T12:45:48;8.40;;;1.30;;
45402;SDS011;47427;51.976;5.326;2022-09-01T12:49:16;2.35;;;1.13;;
45402;SDS011;47427;51.976;5.326;2022-09-01T12:53:01;3.03;;;1.55;;
45402;SDS011;47427;51.976;5.326;2022-09-01T12:56:35;6.05;;;1.17;;
45402;SDS011;47427;51.976;5.326;2022-09-01T13:03:42;5.47;;;1.63;;
45402;SDS011;47427;51.976;5.326;2022-09-01T13:07:33;4.57;;;1.10;;
45402;SDS011;47427;51.976;5.326;2022-09-01T13:11:20;6.18;;;1.30;;
45402;SDS011;47427;51.976;5.326;2022-09-01T13:14:41;5.82;;;1.10;;
45402;SDS011;47427;51.976;5.326;2022-09-01T13:18:04;3.42;;;1.20;;
45402;SDS011;47427;51.976;5.326;2022-09-01T13:21:25;4.72;;;1.30;;
45402;SDS011;47427;51.976;5.326;2022-09-01T13:25:09;2.95;;;1.40;;
45402;SDS011;47427;51.976;5.326;2022-09-01T13:28:34;3.28;;;1.20;;
45402;SDS011;47427;51.976;5.326;2022-09-01T13:32:15;3.42;;;1.10;;
45402;SDS011;47427;51.976;5.326;2022-09-01T13:35:38;1.27;;;1.17;;
45402;SDS011;47427;51.976;5.326;2022-09-01T13:39:00;2.20;;;1.13;;
45402;SDS011;47427;51.976;5.326;2022-09-01T13:42:22;6.32;;;1.60;;
45402;SDS011;47427;51.976;5.326;2022-09-01T13:45:44;3.58;;;1.30;;
45402;SDS011;47427;51.976;5.326;2022-09-01T13:49:07;4.72;;;1.02;;
45402;SDS011;47427;51.976;5.326;2022-09-01T13:52:30;6.40;;;1.40;;
45402;SDS011;47427;51.976;5.326;2022-09-01T13:55:52;5.70;;;1.30;;
45402;SDS011;47427;51.976;5.326;2022-09-01T13:59:15;2.00;;;1.33;;
45402;SDS011;47427;51.976;5.326;2022-09-01T14:02:38;3.38;;;2.38;;
45402;SDS011;47427;51.976;5.326;2022-09-01T14:06:04;1.42;;;1.30;;
45402;SDS011;47427;51.976;5.326;2022-09-01T14:09:27;10.50;;;4.97;;
45402;SDS011;47427;51.976;5.326;2022-09-01T14:13:09;9.25;;;2.03;;
45402;SDS011;47427;51.976;5.326;2022-09-01T14:16:33;2.88;;;1.55;;
45402;SDS011;47427;51.976;5.326;2022-09-01T14:19:54;5.93;;;1.50;;
45402;SDS011;47427;51.976;5.326;2022-09-01T14:23:18;3.78;;;1.60;;
45402;SDS011;47427;51.976;5.326;2022-09-01T14:26:41;2.42;;;1.33;;
45402;SDS011;47427;51.976;5.326;2022-09-01T14:30:03;2.15;;;1.40;;
45402;SDS011;47427;51.976;5.326;2022-09-01T14:33:27;2.88;;;1.38;;
45402;SDS011;47427;51.976;5.326;2022-09-01T14:36:50;3.30;;;1.00;;
45402;SDS011;47427;51.976;5.326;2022-09-01T14:40:18;1.83;;;1.20;;
45402;SDS011;47427;51.976;5.326;2022-09-01T14:43:43;3.42;;;1.42;;
45402;SDS011;47427;51.976;5.326;2022-09-01T14:47:04;6.18;;;1.58;;
45402;SDS011;47427;51.976;5.326;2022-09-01T14:50:28;2.97;;;1.20;;
45402;SDS011;47427;51.976;5.326;2022-09-01T14:54:12;2.03;;;1.38;;
45402;SDS011;47427;51.976;5.326;2022-09-01T14:57:34;4.68;;;1.52;;
45402;SDS011;47427;51.976;5.326;2022-09-01T15:00:57;7.00;;;1.85;;
45402;SDS011;47427;51.976;5.326;2022-09-01T15:04:19;4.00;;;1.30;;
45402;SDS011;47427;51.976;5.326;2022-09-01T15:07:42;2.03;;;1.45;;
45402;SDS011;47427;51.976;5.326;2022-09-01T15:11:14;2.53;;;1.10;;
45402;SDS011;47427;51.976;5.326;2022-09-01T15:14:38;2.72;;;1.33;;
45402;SDS011;47427;51.976;5.326;2022-09-01T15:18:01;6.13;;;1.52;;
45402;SDS011;47427;51.976;5.326;2022-09-01T15:21:24;1.35;;;1.20;;
45402;SDS011;47427;51.976;5.326;2022-09-01T15:24:52;6.68;;;1.50;;
45402;SDS011;47427;51.976;5.326;2022-09-01T15:28:14;2.15;;;1.35;;
45402;SDS011;47427;51.976;5.326;2022-09-01T15:31:36;6.85;;;1.55;;
45402;SDS011;47427;51.976;5.326;2022-09-01T15:35:00;2.33;;;1.42;;
45402;SDS011;47427;51.976;5.326;2022-09-01T15:38:22;3.75;;;1.50;;
45402;SDS011;47427;51.976;5.326;2022-09-01T15:41:44;10.00;;;1.42;;
45402;SDS011;47427;51.976;5.326;2022-09-01T15:45:12;6.55;;;1.60;;
45402;SDS011;47427;51.976;5.326;2022-09-01T15:48:39;2.60;;;1.50;;
45402;SDS011;47427;51.976;5.326;2022-09-01T15:52:01;3.55;;;1.02;;
45402;SDS011;47427;51.976;5.326;2022-09-01T15:55:43;4.43;;;1.33;;
45402;SDS011;47427;51.976;5.326;2022-09-01T15:59:07;2.60;;;1.33;;
45402;SDS011;47427;51.976;5.326;2022-09-01T16:02:31;2.58;;;1.40;;
45402;SDS011;47427;51.976;5.326;2022-09-01T16:05:53;5.85;;;1.60;;
45402;SDS011;47427;51.976;5.326;2022-09-01T16:09:16;7.38;;;1.90;;
45402;SDS011;47427;51.976;5.326;2022-09-01T16:12:42;3.15;;;1.58;;
45402;SDS011;47427;51.976;5.326;2022-09-01T16:16:28;4.13;;;1.45;;
45402;SDS011;47427;51.976;5.326;2022-09-01T16:20:01;2.90;;;1.20;;
45402;SDS011;47427;51.976;5.326;2022-09-01T16:23:38;6.03;;;1.33;;
45402;SDS011;47427;51.976;5.326;2022-09-01T16:27:09;4.13;;;1.08;;
45402;SDS011;47427;51.976;5.326;2022-09-01T16:30:38;4.47;;;1.35;;
45402;SDS011;47427;51.976;5.326;2022-09-01T16:34:05;2.15;;;1.10;;
45402;SDS011;47427;51.976;5.326;2022-09-01T16:37:44;3.00;;;1.60;;
45402;SDS011;47427;51.976;5.326;2022-09-01T16:49:32;2.15;;;1.60;;
45402;SDS011;47427;51.976;5.326;2022-09-01T16:56:54;4.40;;;1.48;;
45402;SDS011;47427;51.976;5.326;2022-09-01T17:00:50;2.38;;;1.60;;
45402;SDS011;47427;51.976;5.326;2022-09-01T17:04:34;5.80;;;1.45;;
45402;SDS011;47427;51.976;5.326;2022-09-01T17:11:51;3.90;;;1.35;;
45402;SDS011;47427;51.976;5.326;2022-09-01T17:15:27;4.82;;;1.40;;
45402;SDS011;47427;51.976;5.326;2022-09-01T17:19:01;5.10;;;1.25;;
45402;SDS011;47427;51.976;5.326;2022-09-01T17:22:29;3.85;;;1.60;;
45402;SDS011;47427;51.976;5.326;2022-09-01T17:25:57;4.40;;;1.98;;
45402;SDS011;47427;51.976;5.326;2022-09-01T17:29:27;4.15;;;1.73;;
45402;SDS011;47427;51.976;5.326;2022-09-01T17:33:02;3.38;;;1.50;;
45402;SDS011;47427;51.976;5.326;2022-09-01T17:55:24;3.95;;;1.60;;
45402;SDS011;47427;51.976;5.326;2022-09-01T18:07:24;6.65;;;1.98;;
45402;SDS011;47427;51.976;5.326;2022-09-01T18:11:16;6.30;;;2.15;;
45402;SDS011;47427;51.976;5.326;2022-09-01T18:15:00;4.22;;;1.48;;
45402;SDS011;47427;51.976;5.326;2022-09-01T18:18:39;1.85;;;1.65;;
45402;SDS011;47427;51.976;5.326;2022-09-01T18:22:09;3.40;;;1.70;;
45402;SDS011;47427;51.976;5.326;2022-09-01T18:25:49;3.00;;;1.90;;
45402;SDS011;47427;51.976;5.326;2022-09-01T18:29:24;3.75;;;1.80;;
45402;SDS011;47427;51.976;5.326;2022-09-01T18:36:35;3.80;;;1.88;;
45402;SDS011;47427;51.976;5.326;2022-09-01T18:40:28;4.40;;;2.30;;
45402;SDS011;47427;51.976;5.326;2022-09-01T18:47:56;6.18;;;2.13;;
45402;SDS011;47427;51.976;5.326;2022-09-01T18:51:48;4.28;;;2.10;;
45402;SDS011;47427;51.976;5.326;2022-09-01T18:55:56;4.60;;;1.52;;
45402;SDS011;47427;51.976;5.326;2022-09-01T18:59:42;5.65;;;2.15;;
45402;SDS011;47427;51.976;5.326;2022-09-01T19:10:41;7.72;;;2.10;;
45402;SDS011;47427;51.976;5.326;2022-09-01T19:15:12;4.60;;;2.00;;
45402;SDS011;47427;51.976;5.326;2022-09-01T19:18:48;7.30;;;1.92;;
45402;SDS011;47427;51.976;5.326;2022-09-01T19:26:05;3.72;;;1.77;;
45402;SDS011;47427;51.976;5.326;2022-09-01T19:30:07;3.28;;;1.80;;
45402;SDS011;47427;51.976;5.326;2022-09-01T19:33:28;5.90;;;1.70;;
45402;SDS011;47427;51.976;5.326;2022-09-01T19:37:00;7.28;;;1.70;;
45402;SDS011;47427;51.976;5.326;2022-09-01T19:40:25;9.60;;;2.13;;
45402;SDS011;47427;51.976;5.326;2022-09-01T19:43:57;6.32;;;2.00;;
45402;SDS011;47427;51.976;5.326;2022-09-01T19:51:47;9.70;;;2.10;;
45402;SDS011;47427;51.976;5.326;2022-09-01T19:55:31;5.35;;;1.45;;
45402;SDS011;47427;51.976;5.326;2022-09-01T19:59:11;6.72;;;1.95;;
45402;SDS011;47427;51.976;5.326;2022-09-01T20:02:48;7.15;;;1.52;;
45402;SDS011;47427;51.976;5.326;2022-09-01T20:10:04;4.85;;;1.63;;
45402;SDS011;47427;51.976;5.326;2022-09-01T20:14:13;4.93;;;1.88;;
45402;SDS011;47427;51.976;5.326;2022-09-01T20:18:23;6.32;;;2.00;;
45402;SDS011;47427;51.976;5.326;2022-09-01T20:26:21;7.18;;;3.20;;
45402;SDS011;47427;51.976;5.326;2022-09-01T20:30:02;5.72;;;2.72;;
45402;SDS011;47427;51.976;5.326;2022-09-01T20:41:33;2.42;;;1.73;;
45402;SDS011;47427;51.976;5.326;2022-09-01T20:45:25;5.82;;;1.73;;
45402;SDS011;47427;51.976;5.326;2022-09-01T20:48:48;4.55;;;1.65;;
45402;SDS011;47427;51.976;5.326;2022-09-01T20:59:40;7.20;;;1.77;;
45402;SDS011;47427;51.976;5.326;2022-09-01T21:07:14;5.00;;;1.63;;
45402;SDS011;47427;51.976;5.326;2022-09-01T21:10:54;8.30;;;1.63;;
45402;SDS011;47427;51.976;5.326;2022-09-01T21:25:24;2.65;;;1.52;;
45402;SDS011;47427;51.976;5.326;2022-09-01T21:28:47;5.72;;;1.80;;
45402;SDS011;47427;51.976;5.326;2022-09-01T21:32:16;6.22;;;1.70;;
45402;SDS011;47427;51.976;5.326;2022-09-01T21:35:38;3.13;;;1.83;;
45402;SDS011;47427;51.976;5.326;2022-09-01T21:39:00;4.20;;;1.65;;
45402;SDS011;47427;51.976;5.326;2022-09-01T21:42:25;2.08;;;1.90;;
45402;SDS011;47427;51.976;5.326;2022-09-01T21:45:53;4.85;;;1.77;;
45402;SDS011;47427;51.976;5.326;2022-09-01T21:49:16;4.68;;;1.63;;
45402;SDS011;47427;51.976;5.326;2022-09-01T21:52:37;5.43;;;1.73;;
45402;SDS011;47427;51.976;5.326;2022-09-01T21:56:00;3.35;;;1.92;;
45402;SDS011;47427;51.976;5.326;2022-09-01T21:59:42;4.25;;;1.58;;
45402;SDS011;47427;51.976;5.326;2022-09-01T22:03:05;2.38;;;1.30;;
45402;SDS011;47427;51.976;5.326;2022-09-01T22:06:29;1.90;;;1.70;;
45402;SDS011;47427;51.976;5.326;2022-09-01T22:09:51;3.25;;;1.50;;
45402;SDS011;47427;51.976;5.326;2022-09-01T22:13:14;13.00;;;1.55;;
45402;SDS011;47427;51.976;5.326;2022-09-01T22:16:41;6.63;;;1.60;;
45402;SDS011;47427;51.976;5.326;2022-09-01T22:20:04;4.57;;;1.30;;
45402;SDS011;47427;51.976;5.326;2022-09-01T22:23:29;2.60;;;1.40;;
45402;SDS011;47427;51.976;5.326;2022-09-01T22:26:51;2.50;;;1.13;;
45402;SDS011;47427;51.976;5.326;2022-09-01T22:30:12;2.80;;;1.35;;
45402;SDS011;47427;51.976;5.326;2022-09-01T22:33:36;2.83;;;1.35;;
45402;SDS011;47427;51.976;5.326;2022-09-01T22:36:59;4.28;;;1.42;;
45402;SDS011;47427;51.976;5.326;2022-09-01T22:40:22;2.25;;;1.55;;
45402;SDS011;47427;51.976;5.326;2022-09-01T22:43:44;7.95;;;1.35;;
45402;SDS011;47427;51.976;5.326;2022-09-01T22:50:51;4.65;;;1.55;;
45402;SDS011;47427;51.976;5.326;2022-09-01T22:54:14;4.40;;;1.50;;
45402;SDS011;47427;51.976;5.326;2022-09-01T22:57:36;6.20;;;1.58;;
45402;SDS011;47427;51.976;5.326;2022-09-01T23:00:59;2.55;;;1.33;;
45402;SDS011;47427;51.976;5.326;2022-09-01T23:04:23;4.70;;;1.35;;
45402;SDS011;47427;51.976;5.326;2022-09-01T23:07:46;5.47;;;1.50;;
45402;SDS011;47427;51.976;5.326;2022-09-01T23:11:09;6.50;;;1.58;;
45402;SDS011;47427;51.976;5.326;2022-09-01T23:14:33;2.42;;;1.20;;
45402;SDS011;47427;51.976;5.326;2022-09-01T23:17:56;4.95;;;1.30;;
45402;SDS011;47427;51.976;5.326;2022-09-01T23:21:20;6.93;;;1.40;;
45402;SDS011;47427;51.976;5.326;2022-09-01T23:24:48;3.88;;;1.20;;
45402;SDS011;47427;51.976;5.326;2022-09-01T23:28:12;4.53;;;1.42;;
45402;SDS011;47427;51.976;5.326;2022-09-01T23:31:37;3.85;;;1.60;;
45402;SDS011;47427;51.976;5.326;2022-09-01T23:35:01;5.85;;;1.73;;
45402;SDS011;47427;51.976;5.326;2022-09-01T23:38:25;12.00;;;1.95;;
45402;SDS011;47427;51.976;5.326;2022-09-01T23:41:47;2.00;;;1.38;;
45402;SDS011;47427;51.976;5.326;2022-09-01T23:45:11;7.78;;;1.50;;
45402;SDS011;47427;51.976;5.326;2022-09-01T23:48:34;2.10;;;1.30;;
45402;SDS011;47427;51.976;5.326;2022-09-01T23:51:57;2.65;;;1.23;;
45402;SDS011;47427;51.976;5.326;2022-09-01T23:55:20;2.20;;;1.52;;
45402;SDS011;47427;51.976;5.326;2022-09-01T23:58:42;2.75;;;1.42;;
